createdAt,value
2017-10-23T00:01:03.063Z,63.85
2017-10-23T00:03:29.341Z,63.82
2017-10-23T00:05:55.871Z,63.78
2017-10-23T00:08:22.052Z,63.81
2017-10-23T00:10:48.234Z,63.84
2017-10-23T00:13:15.205Z,63.91
2017-10-23T00:15:41.407Z,63.86
2017-10-23T00:18:07.605Z,63.80
2017-10-23T00:20:33.849Z,63.77
2017-10-23T00:23:00.133Z,63.81
2017-10-23T00:25:26.317Z,63.90
2017-10-23T00:27:52.645Z,63.92
2017-10-23T00:30:18.835Z,63.92
2017-10-23T00:32:45.013Z,63.85
2017-10-23T00:35:11.329Z,63.86
2017-10-23T00:37:37.522Z,63.82
2017-10-23T00:40:03.728Z,63.80
2017-10-23T00:42:29.989Z,63.76
2017-10-23T00:44:56.166Z,63.78
2017-10-23T00:47:22.345Z,63.74
2017-10-23T00:49:49.240Z,63.74
2017-10-23T00:52:15.488Z,63.68
2017-10-23T00:54:41.700Z,63.77
2017-10-23T00:57:08.477Z,63.79
2017-10-23T00:59:34.743Z,63.81
2017-10-23T01:02:00.978Z,63.87
2017-10-23T01:04:27.234Z,63.89
2017-10-23T01:06:53.760Z,63.83
2017-10-23T01:09:19.932Z,63.80
2017-10-23T01:11:46.266Z,63.81
2017-10-23T01:14:12.465Z,63.78
2017-10-23T01:16:38.980Z,63.72
2017-10-23T01:19:05.253Z,63.71
2017-10-23T01:21:31.514Z,63.73
2017-10-23T01:23:57.738Z,63.70
2017-10-23T01:26:24.053Z,63.73
2017-10-23T01:28:50.244Z,63.73
2017-10-23T01:31:16.452Z,63.72
2017-10-23T01:33:42.907Z,63.72
2017-10-23T01:36:09.571Z,63.73
2017-10-23T01:38:35.778Z,63.70
2017-10-23T01:41:01.990Z,63.66
2017-10-23T01:43:28.313Z,63.70
2017-10-23T01:45:54.497Z,63.70
2017-10-23T01:48:20.979Z,63.69
2017-10-23T01:50:47.812Z,63.72
2017-10-23T01:53:14.000Z,63.67
2017-10-23T01:55:40.178Z,63.70
2017-10-23T01:58:06.700Z,63.71
2017-10-23T02:00:33.237Z,63.62
2017-10-23T02:02:59.452Z,63.65
2017-10-23T02:05:26.049Z,63.65
2017-10-23T02:07:52.229Z,63.68
2017-10-23T02:10:18.416Z,63.68
2017-10-23T02:12:44.668Z,63.68
2017-10-23T02:15:10.853Z,63.63
2017-10-23T02:17:37.042Z,63.66
2017-10-23T02:20:04.390Z,63.67
2017-10-23T02:22:30.590Z,63.67
2017-10-23T02:24:56.772Z,63.62
2017-10-23T02:27:23.088Z,63.62
2017-10-23T02:29:49.257Z,63.60
2017-10-23T02:32:15.737Z,63.58
2017-10-23T02:34:41.949Z,63.59
2017-10-23T02:37:08.151Z,63.58
2017-10-23T02:39:34.321Z,63.60
2017-10-23T02:42:00.577Z,63.59
2017-10-23T02:44:26.753Z,63.61
2017-10-23T02:46:52.960Z,63.59
2017-10-23T02:49:19.584Z,63.61
2017-10-23T02:51:45.770Z,63.65
2017-10-23T02:54:11.956Z,63.65
2017-10-23T02:56:38.565Z,63.61
2017-10-23T02:59:04.751Z,63.58
2017-10-23T03:01:30.943Z,63.55
2017-10-23T03:03:57.418Z,63.59
2017-10-23T03:06:23.638Z,63.61
2017-10-23T03:08:49.906Z,63.60
2017-10-23T03:11:16.411Z,63.58
2017-10-23T03:13:42.949Z,63.57
2017-10-23T03:16:09.572Z,63.55
2017-10-23T03:18:35.772Z,63.50
2017-10-23T03:21:01.978Z,63.50
2017-10-23T03:23:28.576Z,63.49
2017-10-23T03:25:54.767Z,63.52
2017-10-23T03:28:27.383Z,63.53
2017-10-23T03:30:53.640Z,63.53
2017-10-23T03:33:19.848Z,63.49
2017-10-23T03:35:46.042Z,63.49
2017-10-23T03:38:12.365Z,63.52
2017-10-23T03:40:38.576Z,63.47
2017-10-23T03:43:04.773Z,63.46
2017-10-23T03:45:31.325Z,63.46
2017-10-23T03:47:57.529Z,63.49
2017-10-23T03:50:23.712Z,63.53
2017-10-23T03:52:49.953Z,63.51
2017-10-23T03:55:16.153Z,63.52
2017-10-23T03:57:42.349Z,63.52
2017-10-23T04:00:08.629Z,63.50
2017-10-23T04:02:34.836Z,63.48
2017-10-23T04:05:01.084Z,63.47
2017-10-23T04:07:27.393Z,63.48
2017-10-23T04:09:53.977Z,63.52
2017-10-23T04:12:20.226Z,63.55
2017-10-23T04:14:46.546Z,63.55
2017-10-23T04:17:13.072Z,63.49
2017-10-23T04:19:39.315Z,63.48
2017-10-23T04:22:05.653Z,63.52
2017-10-23T04:24:31.896Z,63.48
2017-10-23T04:26:58.393Z,63.51
2017-10-23T04:29:24.738Z,63.51
2017-10-23T04:31:50.920Z,63.48
2017-10-23T04:34:17.127Z,63.44
2017-10-23T04:36:43.371Z,63.47
2017-10-23T04:39:09.557Z,63.45
2017-10-23T04:41:35.774Z,63.40
2017-10-23T04:44:02.297Z,63.43
2017-10-23T04:46:28.501Z,63.48
2017-10-23T04:48:54.704Z,63.47
2017-10-23T04:51:21.597Z,63.47
2017-10-23T04:53:47.845Z,63.51
2017-10-23T04:56:14.037Z,63.50
2017-10-23T04:58:40.300Z,63.50
2017-10-23T05:01:06.916Z,63.49
2017-10-23T05:03:33.087Z,63.50
2017-10-23T05:05:59.685Z,63.45
2017-10-23T05:08:25.877Z,63.41
2017-10-23T05:10:52.101Z,63.40
2017-10-23T05:13:18.365Z,63.41
2017-10-23T05:15:44.527Z,63.39
2017-10-23T05:18:10.712Z,63.39
2017-10-23T05:20:37.506Z,63.37
2017-10-23T05:23:03.997Z,63.35
2017-10-23T05:25:30.534Z,63.35
2017-10-23T05:27:56.868Z,63.36
2017-10-23T05:30:23.113Z,63.28
2017-10-23T05:32:49.341Z,63.22
2017-10-23T05:35:15.957Z,63.18
2017-10-23T05:37:42.157Z,63.14
2017-10-23T05:40:08.352Z,63.15
2017-10-23T05:42:34.606Z,63.16
2017-10-23T05:45:00.839Z,63.10
2017-10-23T05:47:27.301Z,63.13
2017-10-23T05:49:53.541Z,63.14
2017-10-23T05:52:20.065Z,63.12
2017-10-23T05:54:46.296Z,63.10
2017-10-23T05:57:12.622Z,63.13
2017-10-23T05:59:38.859Z,63.13
2017-10-23T06:02:05.067Z,63.15
2017-10-23T06:04:31.325Z,63.12
2017-10-23T06:06:57.730Z,63.15
2017-10-23T06:09:23.969Z,63.14
2017-10-23T06:11:50.315Z,63.11
2017-10-23T06:14:16.554Z,63.13
2017-10-23T06:16:42.766Z,63.20
2017-10-23T06:19:09.083Z,63.19
2017-10-23T06:21:35.325Z,63.20
2017-10-23T06:24:01.571Z,63.23
2017-10-23T06:26:28.190Z,63.27
2017-10-23T06:28:54.436Z,63.26
2017-10-23T06:31:20.902Z,63.22
2017-10-23T06:33:47.333Z,63.23
2017-10-23T06:36:13.581Z,63.19
2017-10-23T06:38:39.900Z,63.23
2017-10-23T06:41:06.159Z,63.17
2017-10-23T06:43:32.362Z,63.17
2017-10-23T06:45:58.826Z,63.19
2017-10-23T06:48:25.389Z,63.17
2017-10-23T06:50:51.611Z,63.21
2017-10-23T06:53:17.849Z,63.18
2017-10-23T06:55:44.865Z,63.15
2017-10-23T06:58:11.130Z,63.10
2017-10-23T07:00:37.447Z,63.13
2017-10-23T07:03:04.130Z,63.08
2017-10-23T07:05:30.584Z,63.11
2017-10-23T07:07:56.911Z,63.15
2017-10-23T07:10:23.211Z,63.12
2017-10-23T07:12:49.506Z,63.11
2017-10-23T07:15:15.716Z,63.09
2017-10-23T07:17:41.978Z,63.08
2017-10-23T07:20:08.191Z,63.06
2017-10-23T07:22:34.376Z,63.11
2017-10-23T07:25:00.666Z,63.12
2017-10-23T07:27:26.862Z,63.15
2017-10-23T07:29:53.060Z,63.12
2017-10-23T07:32:19.406Z,63.13
2017-10-23T07:34:45.602Z,63.15
2017-10-23T07:37:11.805Z,63.17
2017-10-23T07:39:38.710Z,63.21
2017-10-23T07:42:04.914Z,63.18
2017-10-23T07:44:31.126Z,63.19
2017-10-23T07:46:57.468Z,63.16
2017-10-23T07:49:23.669Z,63.10
2017-10-23T07:51:49.853Z,63.06
2017-10-23T07:54:16.350Z,63.03
2017-10-23T07:56:42.551Z,63.04
2017-10-23T07:59:08.746Z,63.07
2017-10-23T08:01:35.003Z,63.02
2017-10-23T08:04:01.202Z,62.94
2017-10-23T08:06:27.735Z,62.95
2017-10-23T08:08:54.139Z,62.96
2017-10-23T08:11:20.332Z,62.97
2017-10-23T08:13:46.517Z,63.00
2017-10-23T08:16:12.776Z,63.03
2017-10-23T08:18:38.963Z,63.04
2017-10-23T08:21:05.155Z,63.01
2017-10-23T08:23:31.791Z,63.02
2017-10-23T08:25:58.226Z,63.04
2017-10-23T08:28:24.564Z,63.01
2017-10-23T08:30:51.196Z,63.01
2017-10-23T08:33:17.398Z,63.01
2017-10-23T08:35:43.905Z,62.97
2017-10-23T08:38:10.233Z,62.94
2017-10-23T08:40:36.834Z,62.95
2017-10-23T08:43:03.032Z,62.95
2017-10-23T08:45:29.357Z,62.94
2017-10-23T08:47:55.554Z,63.00
2017-10-23T08:50:21.770Z,63.05
2017-10-23T08:52:48.372Z,63.05
2017-10-23T08:55:14.854Z,63.06
2017-10-23T08:57:41.065Z,63.04
2017-10-23T09:00:07.408Z,63.06
2017-10-23T09:02:33.631Z,63.01
2017-10-23T09:05:00.077Z,62.99
2017-10-23T09:07:27.216Z,62.98
2017-10-23T09:12:19.564Z,62.91
2017-10-23T09:14:46.010Z,62.91
2017-10-23T09:17:12.364Z,62.82
2017-10-23T09:19:38.548Z,62.80
2017-10-23T09:22:04.778Z,62.74
2017-10-23T09:24:31.638Z,62.63
2017-10-23T09:26:57.824Z,62.60
2017-10-23T09:29:24.302Z,62.53
2017-10-23T09:31:50.737Z,62.49
2017-10-23T09:34:16.926Z,62.36
2017-10-23T09:36:43.156Z,62.33
2017-10-23T09:39:09.412Z,62.32
2017-10-23T09:41:35.958Z,62.26
2017-10-23T09:44:02.151Z,62.21
2017-10-23T09:46:28.492Z,62.22
2017-10-23T09:48:54.701Z,62.20
2017-10-23T09:51:21.175Z,62.15
2017-10-23T09:53:47.517Z,62.04
2017-10-23T09:56:14.037Z,61.93
2017-10-23T09:58:40.241Z,61.97
2017-10-23T10:01:06.678Z,62.03
2017-10-23T10:03:32.862Z,62.02
2017-10-23T10:05:59.038Z,61.95
2017-10-23T10:08:25.694Z,61.87
2017-10-23T10:10:51.891Z,61.90
2017-10-23T10:13:18.271Z,61.88
2017-10-23T10:15:44.600Z,61.87
2017-10-23T10:18:11.018Z,61.87
2017-10-23T10:20:37.211Z,61.83
2017-10-23T10:23:03.831Z,61.87
2017-10-23T10:25:30.288Z,61.97
2017-10-23T10:27:56.495Z,62.02
2017-10-23T10:30:22.782Z,62.07
2017-10-23T10:32:49.000Z,62.12
2017-10-23T10:35:15.319Z,62.11
2017-10-23T10:37:41.575Z,62.19
2017-10-23T10:40:07.779Z,62.22
2017-10-23T10:42:34.325Z,62.26
2017-10-23T10:45:01.005Z,62.24
2017-10-23T10:47:27.207Z,62.21
2017-10-23T10:49:53.404Z,62.25
2017-10-23T10:52:19.752Z,62.23
2017-10-23T10:54:45.971Z,62.25
2017-10-23T10:57:12.406Z,62.31
2017-10-23T10:59:39.358Z,62.36
2017-10-23T11:02:05.561Z,62.32
2017-10-23T11:04:31.763Z,62.28
2017-10-23T11:06:58.080Z,62.27
2017-10-23T11:09:24.265Z,62.24
2017-10-23T11:11:50.457Z,62.23
2017-10-23T11:14:17.069Z,62.18
2017-10-23T11:16:43.273Z,62.15
2017-10-23T11:19:09.471Z,62.10
2017-10-23T11:21:35.738Z,62.11
2017-10-23T11:24:01.933Z,62.05
2017-10-23T11:26:28.143Z,62.04
2017-10-23T11:28:54.489Z,62.08
2017-10-23T11:31:20.912Z,62.12
2017-10-23T11:33:47.111Z,62.14
2017-10-23T11:36:13.357Z,62.12
2017-10-23T11:38:39.535Z,62.08
2017-10-23T11:41:05.769Z,62.03
2017-10-23T11:43:31.970Z,61.99
2017-10-23T11:45:58.167Z,61.94
2017-10-23T11:48:24.410Z,61.93
2017-10-23T11:50:50.607Z,61.88
2017-10-23T11:53:17.087Z,61.86
2017-10-23T11:55:43.769Z,61.88
2017-10-23T11:58:09.969Z,61.94
2017-10-23T12:00:36.182Z,61.93
2017-10-23T12:03:02.716Z,61.91
2017-10-23T12:05:28.907Z,61.85
2017-10-23T12:07:55.090Z,61.82
2017-10-23T12:10:21.602Z,61.81
2017-10-23T12:12:47.906Z,61.83
2017-10-23T12:15:14.106Z,61.90
2017-10-23T12:17:40.798Z,61.91
2017-10-23T12:20:07.334Z,61.87
2017-10-23T12:22:33.872Z,61.91
2017-10-23T12:25:00.374Z,61.93
2017-10-23T12:27:26.581Z,61.92
2017-10-23T12:29:53.033Z,61.92
2017-10-23T12:32:19.295Z,61.93
2017-10-23T12:34:45.532Z,61.98
2017-10-23T12:37:11.720Z,62.04
2017-10-23T12:39:38.746Z,62.07
2017-10-23T12:42:04.928Z,62.11
2017-10-23T12:44:31.121Z,62.11
2017-10-23T12:46:57.398Z,62.11
2017-10-23T12:49:23.610Z,62.09
2017-10-23T12:51:49.801Z,62.12
2017-10-23T12:54:16.142Z,62.09
2017-10-23T12:56:42.360Z,62.12
2017-10-23T12:59:08.549Z,62.10
2017-10-23T13:01:35.158Z,62.13
2017-10-23T13:04:01.361Z,62.13
2017-10-23T13:06:27.548Z,62.13
2017-10-23T13:08:53.791Z,62.16
2017-10-23T13:11:19.987Z,62.15
2017-10-23T13:13:46.278Z,62.18
2017-10-23T13:16:12.543Z,62.18
2017-10-23T13:18:38.747Z,62.12
2017-10-23T13:21:04.943Z,62.04
2017-10-23T13:23:31.282Z,62.02
2017-10-23T13:25:57.488Z,62.02
2017-10-23T13:28:23.912Z,62.02
2017-10-23T13:30:50.250Z,62.03
2017-10-23T13:33:16.447Z,62.10
2017-10-23T13:35:42.643Z,62.18
2017-10-23T13:38:09.070Z,62.22
2017-10-23T13:40:35.289Z,62.21
2017-10-23T13:43:01.470Z,62.21
2017-10-23T13:45:27.761Z,62.22
2017-10-23T13:47:53.950Z,62.24
2017-10-23T13:50:20.156Z,62.26
2017-10-23T13:52:46.429Z,62.26
2017-10-23T13:55:12.604Z,62.30
2017-10-23T13:57:39.225Z,62.30
2017-10-23T14:00:05.763Z,62.28
2017-10-23T14:02:31.971Z,62.28
2017-10-23T14:04:58.221Z,62.29
2017-10-23T14:07:24.561Z,62.32
2017-10-23T14:09:50.757Z,62.36
2017-10-23T14:12:16.967Z,62.42
2017-10-23T14:14:43.589Z,62.47
2017-10-23T14:17:09.786Z,62.51
2017-10-23T14:19:36.069Z,62.55
2017-10-23T14:22:02.384Z,62.53
2017-10-23T14:24:28.688Z,62.55
2017-10-23T14:26:54.937Z,62.56
2017-10-23T14:29:21.534Z,62.58
2017-10-23T14:31:47.774Z,62.59
2017-10-23T14:34:14.032Z,62.58
2017-10-23T14:36:40.458Z,62.56
2017-10-23T14:39:06.760Z,62.60
2017-10-23T14:41:33.277Z,62.60
2017-10-23T14:43:59.609Z,62.61
2017-10-23T14:46:25.818Z,62.62
2017-10-23T14:48:52.373Z,62.73
2017-10-23T14:51:18.643Z,62.70
2017-10-23T14:53:44.946Z,62.70
2017-10-23T14:56:11.166Z,62.76
2017-10-23T14:58:37.434Z,62.77
2017-10-23T15:01:03.918Z,62.77
2017-10-23T15:03:30.138Z,62.76
2017-10-23T15:05:56.399Z,62.80
2017-10-23T15:08:22.626Z,62.83
2017-10-23T15:10:48.842Z,62.83
2017-10-23T15:13:15.110Z,62.87
2017-10-23T15:15:41.381Z,62.86
2017-10-23T15:18:07.573Z,62.90
2017-10-23T15:20:34.205Z,62.87
2017-10-23T15:23:00.390Z,62.85
2017-10-23T15:25:26.612Z,62.85
2017-10-23T15:27:53.032Z,62.89
2017-10-23T15:30:19.230Z,62.95
2017-10-23T15:32:45.425Z,62.96
2017-10-23T15:35:11.678Z,62.96
2017-10-23T15:37:37.891Z,62.97
2017-10-23T15:40:04.096Z,63.05
2017-10-23T15:42:30.411Z,63.05
2017-10-23T15:44:56.613Z,63.05
2017-10-23T15:47:22.799Z,63.06
2017-10-23T15:49:49.121Z,63.07
2017-10-23T15:52:15.309Z,63.12
2017-10-23T15:54:41.760Z,63.13
2017-10-23T15:57:08.140Z,63.15
2017-10-23T15:59:34.353Z,63.15
2017-10-23T16:02:00.849Z,63.18
2017-10-23T16:04:27.384Z,63.16
2017-10-23T16:06:53.588Z,63.18
2017-10-23T16:09:19.777Z,63.15
2017-10-23T16:11:46.026Z,63.14
2017-10-23T16:14:12.229Z,63.14
2017-10-23T16:16:38.461Z,63.14
2017-10-23T16:19:04.787Z,63.12
2017-10-23T16:21:31.001Z,63.11
2017-10-23T16:23:57.212Z,63.15
2017-10-23T16:26:24.056Z,63.18
2017-10-23T16:28:50.596Z,63.24
2017-10-23T16:31:16.809Z,63.23
2017-10-23T16:33:43.415Z,63.25
2017-10-23T16:36:09.612Z,63.26
2017-10-23T16:38:35.829Z,63.27
2017-10-23T16:41:02.495Z,63.26
2017-10-23T16:43:28.692Z,63.22
2017-10-23T16:45:54.897Z,63.24
2017-10-23T16:48:21.159Z,63.32
2017-10-23T16:50:47.357Z,63.30
2017-10-23T16:53:13.560Z,63.31
2017-10-23T16:55:39.820Z,63.33
2017-10-23T16:58:06.020Z,63.35
2017-10-23T17:00:32.258Z,63.38
2017-10-23T17:02:58.495Z,63.35
2017-10-23T17:05:24.687Z,63.36
2017-10-23T17:07:50.873Z,63.38
2017-10-23T17:10:17.214Z,63.41
2017-10-23T17:12:43.419Z,63.41
2017-10-23T17:15:09.603Z,63.42
2017-10-23T17:17:36.038Z,63.45
2017-10-23T17:20:02.255Z,63.45
2017-10-23T17:22:28.523Z,63.46
2017-10-23T17:24:54.852Z,63.50
2017-10-23T17:27:21.033Z,63.49
2017-10-23T17:29:47.213Z,63.48
2017-10-23T17:32:13.544Z,63.44
2017-10-23T17:34:40.078Z,63.50
2017-10-23T17:37:06.259Z,63.50
2017-10-23T17:39:32.841Z,63.49
2017-10-23T17:41:59.026Z,63.48
2017-10-23T17:44:25.506Z,63.52
2017-10-23T17:46:51.856Z,63.53
2017-10-23T17:49:18.067Z,63.56
2017-10-23T17:51:44.266Z,63.56
2017-10-23T17:54:11.136Z,63.56
2017-10-23T17:56:37.331Z,63.57
2017-10-23T17:59:03.757Z,63.59
2017-10-23T18:01:30.032Z,63.61
2017-10-23T18:03:56.219Z,63.58
2017-10-23T18:06:22.404Z,63.64
2017-10-23T18:08:48.965Z,63.65
2017-10-23T18:11:15.174Z,63.67
2017-10-23T18:13:41.380Z,63.66
2017-10-23T18:16:07.902Z,63.68
2017-10-23T18:18:34.370Z,63.67
2017-10-23T18:21:00.568Z,63.71
2017-10-23T18:23:26.772Z,63.73
2017-10-23T18:25:53.059Z,63.74
2017-10-23T18:28:19.255Z,63.77
2017-10-23T18:30:45.685Z,63.79
2017-10-23T18:33:11.951Z,63.82
2017-10-23T18:35:38.154Z,63.83
2017-10-23T18:38:04.347Z,63.84
2017-10-23T18:40:30.642Z,63.85
2017-10-23T18:42:56.840Z,63.82
2017-10-23T18:45:23.035Z,63.79
2017-10-23T18:47:49.310Z,63.82
2017-10-23T18:50:15.498Z,63.83
2017-10-23T18:52:41.718Z,63.84
2017-10-23T18:55:08.067Z,63.85
2017-10-23T19:00:25.141Z,63.80
2017-10-23T19:02:51.335Z,63.83
2017-10-23T19:05:17.537Z,64.08
2017-10-23T19:07:43.786Z,64.26
2017-10-23T19:10:10.029Z,64.16
2017-10-23T19:12:36.545Z,64.23
2017-10-23T19:15:02.857Z,64.53
2017-10-23T19:17:29.302Z,64.60
2017-10-23T19:19:55.522Z,64.45
2017-10-23T19:22:22.116Z,64.71
2017-10-23T19:24:48.563Z,65.01
2017-10-23T19:27:15.001Z,65.29
2017-10-23T19:29:41.257Z,65.47
2017-10-23T19:32:07.471Z,65.54
2017-10-23T19:34:33.670Z,65.61
2017-10-23T19:37:00.241Z,65.67
2017-10-23T19:39:26.437Z,65.66
2017-10-23T19:41:52.763Z,65.66
2017-10-23T19:44:19.009Z,65.61
2017-10-23T19:46:45.464Z,65.57
2017-10-23T19:49:11.646Z,65.62
2017-10-23T19:51:37.863Z,65.67
2017-10-23T19:54:04.147Z,65.66
2017-10-23T19:56:30.338Z,65.69
2017-10-23T19:58:56.670Z,65.69
2017-10-23T20:01:22.870Z,65.74
2017-10-23T20:03:49.158Z,65.79
2017-10-23T20:06:15.513Z,65.83
2017-10-23T20:08:41.757Z,65.77
2017-10-23T20:11:07.954Z,65.78
2017-10-23T20:13:34.280Z,65.72
2017-10-23T20:16:00.505Z,65.79
2017-10-23T20:18:26.713Z,65.75
2017-10-23T20:20:53.064Z,65.66
2017-10-23T20:23:19.509Z,65.84
2017-10-23T20:25:45.749Z,65.79
2017-10-23T20:28:12.101Z,65.71
2017-10-23T20:30:38.296Z,65.82
2017-10-23T20:33:04.505Z,66.00
2017-10-23T20:35:30.751Z,65.89
2017-10-23T20:37:56.949Z,65.93
2017-10-23T20:40:23.390Z,65.98
2017-10-23T20:42:50.009Z,66.02
2017-10-23T20:45:16.209Z,66.23
2017-10-23T20:47:42.398Z,66.30
2017-10-23T20:50:08.666Z,66.30
2017-10-23T20:52:34.867Z,66.36
2017-10-23T20:55:01.059Z,66.42
2017-10-23T20:57:27.780Z,66.39
2017-10-23T20:59:53.975Z,66.48
2017-10-23T21:02:20.167Z,65.97
2017-10-23T21:04:46.743Z,65.90
2017-10-23T21:07:12.947Z,65.97
2017-10-23T21:09:39.403Z,65.95
2017-10-23T21:12:05.643Z,66.14
2017-10-23T21:14:31.845Z,66.29
2017-10-23T21:16:58.057Z,66.31
2017-10-23T21:19:24.626Z,66.45
2017-10-23T21:21:51.233Z,66.40
2017-10-23T21:24:17.533Z,66.37
2017-10-23T21:26:44.212Z,66.38
2017-10-23T21:29:10.411Z,66.57
2017-10-23T21:31:36.849Z,66.63
2017-10-23T21:34:03.170Z,66.47
2017-10-23T21:36:29.375Z,66.27
2017-10-23T21:38:55.593Z,66.27
2017-10-23T21:41:21.954Z,66.35
2017-10-23T21:43:48.173Z,66.43
2017-10-23T21:46:14.711Z,66.50
2017-10-23T21:48:41.218Z,66.44
2017-10-23T21:51:07.392Z,66.45
2017-10-23T21:53:33.612Z,66.41
2017-10-23T21:55:59.947Z,66.37
2017-10-23T21:58:26.151Z,66.41
2017-10-23T22:00:52.673Z,66.46
2017-10-23T22:03:18.905Z,66.46
2017-10-23T22:05:45.099Z,66.38
2017-10-23T22:08:11.288Z,66.40
2017-10-23T22:10:37.657Z,66.38
2017-10-23T22:13:04.110Z,66.58
2017-10-23T22:15:30.312Z,66.77
2017-10-23T22:17:56.845Z,66.89
2017-10-23T22:20:23.052Z,67.01
2017-10-23T22:22:49.379Z,66.99
2017-10-23T22:25:15.699Z,67.05
2017-10-23T22:27:41.905Z,67.09
2017-10-23T22:30:08.105Z,67.10
2017-10-23T22:32:34.366Z,67.20
2017-10-23T22:35:00.574Z,67.26
2017-10-23T22:37:27.008Z,67.28
2017-10-23T22:39:53.252Z,67.36
2017-10-23T22:42:19.550Z,67.39
2017-10-23T22:44:45.758Z,67.52
2017-10-23T22:47:11.980Z,67.57
2017-10-23T22:49:38.352Z,67.66
2017-10-23T22:52:04.553Z,67.70
2017-10-23T22:54:30.749Z,67.72
2017-10-23T22:56:56.999Z,67.73
2017-10-23T22:59:23.196Z,67.71
2017-10-23T23:01:49.670Z,67.65
2017-10-23T23:04:16.375Z,67.66
2017-10-23T23:06:42.616Z,67.72
2017-10-23T23:09:08.859Z,67.81
2017-10-23T23:11:35.195Z,67.85
2017-10-23T23:14:01.392Z,67.94
2017-10-23T23:16:27.586Z,68.02
2017-10-23T23:18:54.096Z,68.04
2017-10-23T23:21:20.536Z,68.34
2017-10-23T23:23:46.937Z,68.15
2017-10-23T23:26:13.621Z,68.25
2017-10-23T23:28:39.840Z,68.34
2017-10-23T23:31:06.046Z,68.40
2017-10-23T23:33:32.379Z,68.43
2017-10-23T23:35:58.572Z,68.53
2017-10-23T23:38:24.782Z,68.62
2017-10-23T23:40:51.266Z,68.71
2017-10-23T23:43:17.456Z,68.69
2017-10-23T23:45:43.637Z,68.84
2017-10-23T23:48:09.971Z,68.81
2017-10-23T23:50:36.484Z,68.96
2017-10-23T23:53:02.700Z,69.01
2017-10-23T23:55:28.961Z,69.09
2017-10-23T23:57:55.187Z,69.13
